Ulan Bator, Mongolia
Current Conditions -  °F | °C
As of 10:00 PM on Monday 26 Jan 2015 (Local Time) from ZMUB Reporting Station
Clear Clear  
Wind Chill: -37°   Ceiling: Unl
Heat Index: -20°   Visibility: 6mi
Dew Point: -26°   Wind: 7mph
Humidity: 76%   Direction: 180°S
Pressure: 30.48"   Gusts: NA
Location:  47.92°N, 106.91°E
Report Text: ZMUB 261400Z 18003MPS CAVOK M29/M32 Q1032 NOSIG RMK QFE665.3 67
Loading
Personal Weather Stations






























Interactive Weather Map New forecast layout! Learn more

10-Day Weather Forecast

Advertisements
Track Severe Weather on mobile